This is the latest recevied weather packets stored in our database for station/object TG9SRP-22. If no packets are shown the sender has not sent any weather packets the latest 1 day(s).
| Time | Temp. | Humidity | Pressure | Rain* | Wind** | Luminosity | Snow |
|---|---|---|---|---|---|---|---|
| 1778041712 | 17.22° C | 92% | 1015 hPa | 0 mm | 2.68 m/s, 200° | - | - |
| 1778041111 | 15° C | 92% | 1015 hPa | 0 mm | 2.24 m/s, 200° | - | - |
| 1778040510 | 16.11° C | 91% | 1015 hPa | 0 mm | 2.24 m/s, 200° | - | - |
| 1778039910 | 17.22° C | 90% | 1015 hPa | 0 mm | 2.68 m/s, 200° | - | - |
| 1778039309 | 17.78° C | 90% | 1015 hPa | 0 mm | 2.68 m/s, 200° | - | - |
| 1778038709 | 18.33° C | 90% | 1015 hPa | 0 mm | 2.68 m/s, 200° | - | - |
| 1778038108 | 16.11° C | 90% | 1015 hPa | 0 mm | 3.58 m/s, 200° | - | - |
| 1778037507 | 16.67° C | 90% | 1015 hPa | 0 mm | 3.58 m/s, 200° | - | - |
| 1778036907 | 17.22° C | 90% | 1015 hPa | 0 mm | 3.58 m/s, 200° | - | - |
| 1778036306 | 17.78° C | 90% | 1015 hPa | 0 mm | 4.02 m/s, 200° | - | - |
| 1778035705 | 18.33° C | 90% | 1015 hPa | 0 mm | 4.02 m/s, 200° | - | - |
| 1778035105 | 16.11° C | 91% | 1015 hPa | 0 mm | 4.92 m/s, 190° | - | - |
| 1778034504 | 16.67° C | 91% | 1015 hPa | 0 mm | 4.92 m/s, 190° | - | - |
| 1778033904 | 17.22° C | 91% | 1015 hPa | 0 mm | 4.92 m/s, 190° | - | - |
| 1778033303 | 17.78° C | 92% | 1015 hPa | 0 mm | 4.92 m/s, 190° | - | - |
| 1778032703 | 18.33° C | 93% | 1015 hPa | 0 mm | 4.92 m/s, 190° | - | - |
| 1778032102 | 15.56° C | 96% | 1015 hPa | 0 mm | 4.92 m/s, 190° | - | - |
| 1778031501 | 16.67° C | 95% | 1014 hPa | 0 mm | 4.92 m/s, 190° | - | - |
| 1778030901 | 17.78° C | 94% | 1014 hPa | 0 mm | 4.92 m/s, 190° | - | - |
| 1778030300 | 17.78° C | 94% | 1014 hPa | 0 mm | 4.92 m/s, 190° | - | - |
| 1778029700 | 18.89° C | 94% | 1014 hPa | 0 mm | 4.92 m/s, 190° | - | - |
| 1778029099 | 16.11° C | 95% | 1014 hPa | 0 mm | 2.24 m/s, 207° | - | - |
| 1778028498 | 16.11° C | 90% | 1014 hPa | 0 mm | 5.81 m/s, 190° | - | - |
| 1778027898 | 17.22° C | 89% | 1013 hPa | 0 mm | 5.81 m/s, 190° | - | - |
| 1778027297 | 18.33° C | 87% | 1013 hPa | 0 mm | 5.81 m/s, 190° | - | - |
* Rain latest hour (hover to see other rain measurements)
** Current wind speed in m/s (hover to see current wind gust speed)